Magnolia, OH (44643)

4:39 PM EDT on September 30, 2014 (GMT -0400)
Tri-County Weather Station | Change Station
CLOSE
Current Station
Personal Weather Station
Location: Magnolia, OH
Elevation: 1106 ft
Nearby Weather Stations

Elev 1106 ft 40.69 °N, 81.33 °W | Updated 62 days ago

Fog
Fog
55 °F
Feels Like 55 °F
N
7
Wind Variable Wind from North
Gusts 10 mph

Today
High -- | Low -- °F
--% Chance of Precip.
Yesterday
High -- | Low -- °F
Precip. -- in
7:20 AM 7:08 PM
Waxing Crescent, 40% visible
Pressure 29.90 in
Visibility 10.0 miles
Clouds Few 2100 ft
Scattered Clouds 5000 ft
Overcast 9500 ft
Dew Point 55 °F
Humidity 99%
Rainfall 0.00 in
Snow Depth Not available.
UV 1 out of 12
Pollen 1.80 out of 12
Air Quality Not available.
Flu Activity Not available.
METAR KPHD 301953Z AUTO 29004KT 10SM FEW021 SCT050 OVC095 21/15 A2990 RMK AO2 SLP123 T02060150

More Conditions Fewer Conditions

Pressure 29.90 in
Visibility 10.0 miles
Clouds Few 2100 ft
Scattered Clouds 5000 ft
Overcast 9500 ft
Dew Point 55 °F
Humidity 99%
Rainfall 0.00 in
Snow Depth Not available.
UV 1 out of 12
Pollen 1.80 out of 12
Air Quality Not available.
Flu Activity Not available.
METAR KPHD 301953Z AUTO 29004KT 10SM FEW021 SCT050 OVC095 21/15 A2990 RMK AO2 SLP123 T02060150

More Conditions Fewer Conditions

10-Day Weather Forecast

Almanac

Astronomy

Sep. 30, 2014 Rise Set
Actual Time 7:20 AM EDT 7:08 PM EDT
Civil Twilight 6:53 AM EDT 7:36 PM EDT
Nautical Twilight 6:21 AM EDT 8:07 PM EDT
Astronomical Twilight 5:49 AM EDT 8:39 PM EDT
Moon 1:28 PM EDT 11:36 PM EDT
Length of Visible Light 12h 42m
Length of Day
11h 48m
Tomorrow will be 2m 41s shorter.
Waxing Crescent, 40% of the Moon is Illuminated
Today
Waxing Crescent
Oct 1
First Quarter
Oct 8
Full
Oct 15
Last Quarter
Oct 23
New

Today's Extremes

State Highs State Lows

Community

WunderPhotos

Upload Photos

1,757,743 photos uploaded!

Nearby

Snow Depth

Station Depth Elevation
No new snow has been reported.

Earthquake Activity

City Distance Mag. Time & Date
No recent earthquake activity has been reported nearby.
Minimum magnitude displayed is 2.5.

Coastal Water Temperatures

Place Temperature
No Stations Reporting

Nearby Weather Stations